Time;durP1;ratioP1;P1;durP2;ratioP2;P2;SDS_P1;SDS_P2;PMS_P1;PMS_P2;Temp;Humidity;BMP_temperature;BMP_pressure;BME280_temperature;BME280_humidity;BME280_pressure;Samples;Min_cycle;Max_cycle;Signal;HPM_P1;HPM_P2
2023/01/19 00:01:22;;;;;;;;;;;;;;;9.46;48.05;99438.03;4970112;27;98199;-65
2023/01/19 00:03:47;;;;;;;;;;;;;;;9.45;47.70;99447.19;4975785;27;125551;-67
2023/01/19 00:06:13;;;;;;;;;;;;;;;9.43;48.50;99442.13;4974194;27;122409;-66
2023/01/19 00:08:39;;;;;;;;;;;;;;;9.43;48.07;99449.34;5005262;27;109857;-67
2023/01/19 00:11:05;;;;;;;;;;;;;;;9.42;47.62;99451.25;4987603;27;122788;-66
2023/01/19 00:13:31;;;;;;;;;;;;;;;9.42;47.29;99461.22;4968035;27;128379;-67
2023/01/19 00:15:57;;;;;;;;;;;;;;;9.40;48.07;99461.50;4980778;27;128936;-65
2023/01/19 00:18:24;;;;;;;;;;;;;;;9.40;48.25;99474.16;4983096;27;125933;-67
2023/01/19 00:20:50;;;;;;;;;;;;;;;9.38;48.11;99476.31;4969969;27;98925;-65
2023/01/19 00:23:16;;;;;;;;;;;;;;;9.38;47.60;99477.13;4968652;27;128629;-65
2023/01/19 00:25:42;;;;;;;;;;;;;;;9.37;47.94;99488.16;4987415;27;98316;-65
2023/01/19 00:28:12;;;;;;;;;;;;;;;9.35;48.18;99493.81;4970629;27;98933;-66
2023/01/19 00:30:38;;;;;;;;;;;;;;;9.34;47.99;99490.31;4988250;27;115470;-65
2023/01/19 00:33:04;;;;;;;;;;;;;;;9.33;48.03;99485.25;4988844;27;98272;-65
2023/01/19 00:35:30;;;;;;;;;;;;;;;9.33;47.41;99493.31;4971898;27;97950;-65
2023/01/19 00:37:56;;;;;;;;;;;;;;;9.32;48.07;99487.13;4970467;27;99789;-67
2023/01/19 00:40:22;;;;;;;;;;;;;;;9.31;48.02;99484.69;4988543;27;98319;-65
2023/01/19 00:42:48;;;;;;;;;;;;;;;9.29;48.20;99493.06;4967243;27;128541;-65
2023/01/19 00:45:17;;;;;;;;;;;;;;;9.28;47.83;99494.16;4967877;27;127599;-65
2023/01/19 00:47:43;;;;;;;;;;;;;;;9.28;48.28;99494.16;4967453;27;97943;-65
2023/01/19 00:50:13;;;;;;;;;;;;;;;9.26;48.06;99504.38;4967508;27;116585;-66
2023/01/19 00:52:39;;;;;;;;;;;;;;;9.25;47.89;99500.09;5004825;27;98385;-66
2023/01/19 00:55:06;;;;;;;;;;;;;;;9.26;48.20;99503.56;4986724;27;99499;-65
2023/01/19 00:57:32;;;;;;;;;;;;;;;9.23;47.58;99499.56;4967747;27;99619;-66
2023/01/19 00:59:58;;;;;;;;;;;;;;;9.24;47.65;99509.25;4968302;27;123129;-65
2023/01/19 01:02:24;;;;;;;;;;;;;;;9.22;47.69;99507.91;4984315;27;127871;-66
2023/01/19 01:04:53;;;;;;;;;;;;;;;9.21;47.76;99515.19;4967822;27;97783;-65
2023/01/19 01:07:20;;;;;;;;;;;;;;;9.20;48.17;99518.97;5003184;27;97898;-66
2023/01/19 01:09:46;;;;;;;;;;;;;;;9.19;47.95;99516.53;5002286;27;101527;-66
2023/01/19 01:12:12;;;;;;;;;;;;;;;9.17;47.44;99514.13;4966354;27;98497;-66
2023/01/19 01:14:38;;;;;;;;;;;;;;;9.17;48.03;99519.53;4968282;27;128441;-66
2023/01/19 01:17:04;;;;;;;;;;;;;;;9.17;47.68;99522.22;4986682;27;126446;-65
2023/01/19 01:19:30;;;;;;;;;;;;;;;9.15;47.86;99518.97;4971151;27;98913;-65
2023/01/19 01:21:55;;;;;;;;;;;;;;;9.15;47.56;99523.56;4986987;27;125773;-65
2023/01/19 01:24:21;;;;;;;;;;;;;;;9.14;48.30;99519.28;4986145;27;114700;-65
2023/01/19 01:26:47;;;;;;;;;;;;;;;9.12;47.39;99530.31;4988375;27;123008;-65
2023/01/19 01:29:13;;;;;;;;;;;;;;;9.12;48.23;99534.88;4980964;27;122703;-67
2023/01/19 01:31:39;;;;;;;;;;;;;;;9.09;47.87;99528.97;4987114;27;128081;-65
2023/01/19 01:34:06;;;;;;;;;;;;;;;9.09;47.74;99538.94;4969196;27;99643;-65
2023/01/19 01:36:32;;;;;;;;;;;;;;;9.07;47.64;99536.50;4982155;27;98927;-66
2023/01/19 01:38:59;;;;;;;;;;;;;;;9.07;48.18;99533.81;4965955;27;98066;-66
2023/01/19 01:41:26;;;;;;;;;;;;;;;9.05;47.73;99536.00;4972240;27;99398;-65
2023/01/19 01:43:56;;;;;;;;;;;;;;;9.05;48.09;99530.63;5000013;27;98635;-67
2023/01/19 01:46:23;;;;;;;;;;;;;;;9.04;47.59;99522.84;4994651;27;97912;-66
2023/01/19 01:49:11;;;;;;;;;;;;;;;9.03;47.76;99526.59;4988345;27;109814;-66
2023/01/19 01:51:42;;;;;;;;;;;;;;;9.02;47.68;99538.44;5002070;27;120354;-67
2023/01/19 01:54:10;;;;;;;;;;;;;;;9.01;47.64;99534.94;4979765;27;97985;-66
2023/01/19 01:56:38;;;;;;;;;;;;;;;8.99;48.26;99530.94;4995124;27;98089;-67
2023/01/19 01:59:12;;;;;;;;;;;;;;;8.98;47.94;99527.44;4980626;27;97937;-65
2023/01/19 02:04:22;;;;;;;;;;;;;;;8.96;47.96;99534.16;4980684;27;98574;-66
2023/01/19 02:15:04;;;;;;;;;;;;;;;8.91;47.96;99545.75;4980566;27;99623;-65
2023/01/19 02:17:30;;;;;;;;;;;;;;;8.90;47.71;99548.75;4978222;27;118904;-65
2023/01/19 02:19:56;;;;;;;;;;;;;;;8.89;48.26;99545.25;4962001;27;122423;-65
2023/01/19 02:22:34;;;;;;;;;;;;;;;8.88;47.43;99551.69;4974980;27;98465;-65
2023/01/19 02:25:02;;;;;;;;;;;;;;;8.87;47.64;99558.16;4980226;27;98643;-65
2023/01/19 02:27:28;;;;;;;;;;;;;;;8.85;48.01;99555.75;4979906;27;97927;-65
2023/01/19 02:29:54;;;;;;;;;;;;;;;8.83;47.38;99559.78;4976450;27;122791;-65
2023/01/19 02:32:20;;;;;;;;;;;;;;;8.82;47.43;99553.59;4962815;27;98273;-65
2023/01/19 02:34:46;;;;;;;;;;;;;;;8.82;47.83;99564.34;4963316;27;107539;-66
2023/01/19 02:37:12;;;;;;;;;;;;;;;8.81;47.74;99559.28;4977061;27;126556;-66
2023/01/19 02:39:44;;;;;;;;;;;;;;;8.79;47.96;99556.03;4978439;27;98021;-67
2023/01/19 02:42:19;;;;;;;;;;;;;;;8.78;47.99;99563.31;4960983;27;122994;-66
2023/01/19 02:44:47;;;;;;;;;;;;;;;8.77;48.02;99567.09;4979050;27;100840;-65
2023/01/19 02:47:13;;;;;;;;;;;;;;;8.77;48.01;99556.34;4962281;27;99386;-65
2023/01/19 02:49:39;;;;;;;;;;;;;;;8.76;48.03;99568.16;4978932;27;119729;-67
2023/01/19 02:52:05;;;;;;;;;;;;;;;8.75;47.75;99565.75;4977980;27;126586;-65
2023/01/19 02:54:39;;;;;;;;;;;;;;;8.72;47.82;99564.41;4974779;27;98066;-67
2023/01/19 02:57:20;;;;;;;;;;;;;;;8.72;47.38;99571.66;4997787;27;98837;-66
2023/01/19 03:00:08;;;;;;;;;;;;;;;8.70;47.45;99574.63;4984259;27;108120;-65
2023/01/19 03:02:56;;;;;;;;;;;;;;;8.69;48.07;99581.09;4997066;27;98585;-65
2023/01/19 03:05:53;;;;;;;;;;;;;;;8.67;48.05;99569.81;4998714;27;97886;-66
2023/01/19 03:08:32;;;;;;;;;;;;;;;8.66;47.93;99584.31;5019534;27;97973;-65
2023/01/19 03:11:02;;;;;;;;;;;;;;;8.64;47.88;99575.72;4999332;27;98414;-65
2023/01/19 03:13:33;;;;;;;;;;;;;;;8.63;47.48;99568.75;4984037;27;98034;-65
2023/01/19 03:16:26;;;;;;;;;;;;;;;8.63;48.11;99573.31;4981395;27;97975;-66
2023/01/19 03:18:54;;;;;;;;;;;;;;;8.61;47.60;99570.94;4980544;27;98156;-65
2023/01/19 03:21:22;;;;;;;;;;;;;;;8.61;47.64;99573.63;4980163;27;107879;-67
2023/01/19 03:23:48;;;;;;;;;;;;;;;8.59;48.09;99565.81;4984161;27;98315;-66
2023/01/19 03:26:17;;;;;;;;;;;;;;;8.59;47.64;99570.38;4981890;27;128895;-65
2023/01/19 03:28:43;;;;;;;;;;;;;;;8.58;47.75;99566.09;4981040;27;98192;-67
2023/01/19 03:31:14;;;;;;;;;;;;;;;8.58;48.09;99572.28;4964583;27;122905;-65
2023/01/19 03:33:42;;;;;;;;;;;;;;;8.56;47.94;99571.72;4987155;27;108082;-67
2023/01/19 03:36:13;;;;;;;;;;;;;;;8.56;48.14;99579.00;4968361;27;124613;-65
2023/01/19 03:38:39;;;;;;;;;;;;;;;8.55;47.69;99580.88;4970746;27;118129;-66
2023/01/19 03:41:08;;;;;;;;;;;;;;;8.54;47.61;99578.47;4966688;27;98155;-66
2023/01/19 03:43:34;;;;;;;;;;;;;;;8.52;47.55;99580.63;4980714;27;111115;-65
2023/01/19 03:45:59;;;;;;;;;;;;;;;8.53;47.64;99582.25;4968093;27;99482;-67
2023/01/19 03:48:25;;;;;;;;;;;;;;;8.52;47.23;99573.34;4968260;27;122586;-67
2023/01/19 03:50:51;;;;;;;;;;;;;;;8.51;48.21;99576.34;5000986;27;120793;-67
2023/01/19 03:53:18;;;;;;;;;;;;;;;8.50;47.54;99578.22;4981447;27;127680;-66
2023/01/19 03:55:45;;;;;;;;;;;;;;;8.50;47.60;99577.41;4946958;27;113587;-67
2023/01/19 03:58:11;;;;;;;;;;;;;;;8.49;47.65;99582.00;4967610;27;98213;-65
2023/01/19 04:00:37;;;;;;;;;;;;;;;8.49;47.13;99578.47;4968503;27;124646;-66
2023/01/19 04:03:04;;;;;;;;;;;;;;;8.47;47.39;99583.34;4984197;27;128431;-65
2023/01/19 04:05:30;;;;;;;;;;;;;;;8.46;47.48;99593.28;4968505;27;112837;-65
2023/01/19 04:07:56;;;;;;;;;;;;;;;8.45;47.65;99591.69;4984652;27;97994;-66
2023/01/19 04:10:22;;;;;;;;;;;;;;;8.44;47.16;99595.41;4969315;27;121466;-66
2023/01/19 04:12:48;;;;;;;;;;;;;;;8.44;47.70;99586.56;4966188;27;127357;-66
2023/01/19 04:15:14;;;;;;;;;;;;;;;8.42;47.53;99584.16;4971407;27;98480;-66
2023/01/19 04:17:40;;;;;;;;;;;;;;;8.42;47.73;99583.34;4966212;27;98276;-64
2023/01/19 04:20:07;;;;;;;;;;;;;;;8.40;47.72;99591.66;4964767;27;97975;-66
2023/01/19 04:22:33;;;;;;;;;;;;;;;8.40;47.13;99596.25;4951521;27;98410;-66
2023/01/19 04:24:59;;;;;;;;;;;;;;;8.39;47.12;99592.75;4966948;27;113225;-65
2023/01/19 04:27:24;;;;;;;;;;;;;;;8.38;47.68;99588.47;4966506;27;127816;-65
2023/01/19 04:29:51;;;;;;;;;;;;;;;8.39;47.71;99597.31;4970463;27;98183;-67
2023/01/19 04:32:17;;;;;;;;;;;;;;;8.38;47.48;99601.09;4951529;27;105398;-64
2023/01/19 04:34:43;;;;;;;;;;;;;;;8.37;47.88;99600.28;4970732;27;108573;-67
2023/01/19 04:37:09;;;;;;;;;;;;;;;8.36;47.52;99607.50;4965962;27;108292;-66
2023/01/19 04:39:34;;;;;;;;;;;;;;;8.36;47.62;99602.13;4984058;27;120582;-64
2023/01/19 04:42:00;;;;;;;;;;;;;;;8.36;47.45;99606.69;4981264;27;128722;-66
2023/01/19 04:44:27;;;;;;;;;;;;;;;8.35;47.72;99605.91;4956729;27;118887;-64
2023/01/19 04:46:53;;;;;;;;;;;;;;;8.34;47.81;99619.59;4970185;27;98043;-65
2023/01/19 04:49:19;;;;;;;;;;;;;;;8.34;47.43;99606.97;4968785;27;97866;-65
2023/01/19 04:51:45;;;;;;;;;;;;;;;8.33;47.21;99604.53;4967414;27;98325;-66
2023/01/19 04:54:11;;;;;;;;;;;;;;;8.32;47.37;99609.13;4964120;27;114258;-65
2023/01/19 04:56:39;;;;;;;;;;;;;;;8.33;47.63;99610.75;4948902;27;126435;-66
2023/01/19 04:59:05;;;;;;;;;;;;;;;8.32;47.57;99602.94;4948546;27;99785;-67
2023/01/19 05:01:31;;;;;;;;;;;;;;;8.31;47.49;99599.47;4963599;27;98015;-64
2023/01/19 05:04:02;;;;;;;;;;;;;;;8.31;47.48;99604.03;4965749;27;109984;-66
2023/01/19 05:06:28;;;;;;;;;;;;;;;8.30;47.30;99605.91;4962417;27;99663;-67
2023/01/19 05:08:54;;;;;;;;;;;;;;;8.28;47.43;99602.69;4975817;27;122046;-64
2023/01/19 05:11:20;;;;;;;;;;;;;;;8.29;48.04;99603.50;4966316;27;128598;-66
2023/01/19 05:13:46;;;;;;;;;;;;;;;8.28;48.05;99608.06;4948695;27;98601;-65
2023/01/19 05:16:12;;;;;;;;;;;;;;;8.29;47.25;99606.16;4961781;27;128203;-65
2023/01/19 05:18:39;;;;;;;;;;;;;;;8.26;47.61;99604.84;4976492;27;98116;-66
2023/01/19 05:21:05;;;;;;;;;;;;;;;8.26;47.53;99599.47;4965498;27;114593;-65
2023/01/19 05:23:31;;;;;;;;;;;;;;;8.26;47.68;99607.53;4943959;27;125690;-66
2023/01/19 05:25:59;;;;;;;;;;;;;;;8.24;47.21;99596.25;4944281;27;98354;-66
2023/01/19 05:28:29;;;;;;;;;;;;;;;8.26;47.71;99598.69;4932878;28;98018;-65
2023/01/19 05:30:54;;;;;;;;;;;;;;;8.26;47.46;99602.16;4941204;27;112846;-64
2023/01/19 05:33:21;;;;;;;;;;;;;;;8.26;47.21;99604.06;4995872;27;98459;-65
2023/01/19 05:35:51;;;;;;;;;;;;;;;8.27;47.40;99600.28;4979141;27;121484;-65
2023/01/19 05:38:17;;;;;;;;;;;;;;;8.27;47.54;99595.72;4980835;27;98054;-67
2023/01/19 05:40:43;;;;;;;;;;;;;;;8.26;47.17;99591.44;4994388;27;98088;-67
2023/01/19 05:43:09;;;;;;;;;;;;;;;8.28;47.26;99594.63;4963261;27;129104;-65
2023/01/19 05:45:37;;;;;;;;;;;;;;;8.28;47.57;99594.63;4963544;28;99020;-67
2023/01/19 05:48:03;;;;;;;;;;;;;;;8.28;46.94;99591.94;4963459;28;98219;-67
2023/01/19 05:50:30;;;;;;;;;;;;;;;8.29;47.41;99596.25;4966682;28;125303;-65
2023/01/19 05:52:56;;;;;;;;;;;;;;;8.27;47.48;99594.91;4991381;27;114840;-66
2023/01/19 05:55:22;;;;;;;;;;;;;;;8.29;47.56;99600.81;4949175;27;98175;-67
2023/01/19 05:57:48;;;;;;;;;;;;;;;8.29;47.41;99609.69;4948614;27;122044;-65
2023/01/19 06:00:14;;;;;;;;;;;;;;;8.30;47.71;99607.81;4980651;27;115268;-67
2023/01/19 06:02:40;;;;;;;;;;;;;;;8.30;47.75;99610.50;4982233;27;98723;-66
2023/01/19 06:05:07;;;;;;;;;;;;;;;8.31;47.64;99607.53;4950576;27;127209;-66
2023/01/19 06:07:32;;;;;;;;;;;;;;;8.32;47.83;99619.06;4965404;27;97974;-66
2023/01/19 06:09:58;;;;;;;;;;;;;;;8.32;47.75;99621.75;4966117;27;104512;-66
2023/01/19 06:12:24;;;;;;;;;;;;;;;8.33;47.33;99620.66;4981636;27;98380;-66
2023/01/19 06:14:50;;;;;;;;;;;;;;;8.33;47.04;99623.34;4947457;27;127481;-66
2023/01/19 06:17:17;;;;;;;;;;;;;;;8.32;47.34;99625.22;4967832;27;120652;-66
2023/01/19 06:19:43;;;;;;;;;;;;;;;8.34;47.47;99625.78;4961988;27;98365;-66
2023/01/19 06:22:09;;;;;;;;;;;;;;;8.34;47.52;99622.28;4963943;27;127892;-66
2023/01/19 06:24:34;;;;;;;;;;;;;;;8.34;47.46;99628.47;4965106;27;97907;-66
2023/01/19 06:27:00;;;;;;;;;;;;;;;8.34;47.27;99625.78;4947933;27;98221;-66
2023/01/19 06:29:27;;;;;;;;;;;;;;;8.34;47.80;99625.78;4978287;27;98551;-66
2023/01/19 06:31:53;;;;;;;;;;;;;;;8.34;47.63;99631.16;4961718;27;106474;-67
2023/01/19 06:34:19;;;;;;;;;;;;;;;8.33;47.45;99632.22;4960876;27;97917;-67
2023/01/19 06:36:45;;;;;;;;;;;;;;;8.34;47.10;99627.66;4963928;27;111263;-67
2023/01/19 06:39:11;;;;;;;;;;;;;;;8.33;47.41;99626.03;4980864;27;99920;-67
2023/01/19 06:41:37;;;;;;;;;;;;;;;8.33;47.28;99626.88;4963369;27;121040;-66
2023/01/19 06:44:03;;;;;;;;;;;;;;;8.33;47.61;99621.50;4983319;27;97841;-67
2023/01/19 06:46:29;;;;;;;;;;;;;;;8.34;47.40;99619.59;4996415;27;100300;-66
2023/01/19 06:48:55;;;;;;;;;;;;;;;8.35;47.34;99629.25;4964900;27;128300;-66
2023/01/19 06:51:21;;;;;;;;;;;;;;;8.35;47.23;99631.94;4963144;27;127852;-67
2023/01/19 06:53:47;;;;;;;;;;;;;;;8.34;47.27;99625.78;4978841;27;120540;-66
2023/01/19 06:56:13;;;;;;;;;;;;;;;8.34;47.63;99625.78;4982263;27;123090;-67
2023/01/19 06:58:40;;;;;;;;;;;;;;;8.35;47.62;99626.56;4982367;27;108566;-66
2023/01/19 07:01:06;;;;;;;;;;;;;;;8.36;47.64;99630.88;4982118;27;100044;-66
2023/01/19 07:03:33;;;;;;;;;;;;;;;8.36;47.75;99637.03;4983748;27;123754;-67
2023/01/19 07:06:01;;;;;;;;;;;;;;;8.38;47.01;99636.00;4973821;27;100323;-67
2023/01/19 07:08:27;;;;;;;;;;;;;;;8.38;47.10;99644.88;4983295;27;98415;-67
2023/01/19 07:10:59;;;;;;;;;;;;;;;8.40;47.16;99647.28;4982946;27;124208;-67
2023/01/19 07:13:25;;;;;;;;;;;;;;;8.40;47.68;99645.38;4998786;27;98414;-66
2023/01/19 07:15:51;;;;;;;;;;;;;;;8.42;47.02;99647.81;4979109;27;123388;-66
2023/01/19 07:18:17;;;;;;;;;;;;;;;8.43;46.99;99649.41;4963209;27;127553;-67
2023/01/19 07:20:45;;;;;;;;;;;;;;;8.44;47.52;99659.06;4987480;27;128683;-67
2023/01/19 07:23:11;;;;;;;;;;;;;;;8.46;47.27;99670.38;5001313;27;97994;-67
2023/01/19 07:25:38;;;;;;;;;;;;;;;8.49;47.54;99676.00;4994426;27;103483;-67
2023/01/19 07:28:04;;;;;;;;;;;;;;;8.49;46.92;99672.47;5003296;27;98482;-67
2023/01/19 07:30:30;;;;;;;;;;;;;;;8.51;47.34;99679.19;4968009;27;129418;-66
2023/01/19 07:32:56;;;;;;;;;;;;;;;8.54;46.90;99680.56;4984851;27;126903;-66
2023/01/19 07:35:23;;;;;;;;;;;;;;;8.56;46.78;99689.13;4985280;27;98186;-66
2023/01/19 07:37:49;;;;;;;;;;;;;;;8.59;46.76;99691.28;5001935;27;125961;-67
2023/01/19 07:40:15;;;;;;;;;;;;;;;8.59;46.78;99686.69;5013993;27;127625;-67
2023/01/19 14:14:24;;;;;;;;;;;;;;;10.09;47.25;99696.38;5302162;23;100780;-65
2023/01/19 14:16:50;;;;;;;;;;;;;;;10.15;47.25;99697.94;4862736;28;98125;-65
2023/01/19 14:19:16;;;;;;;;;;;;;;;10.22;47.32;99697.63;4855278;28;97985;-65
2023/01/19 14:21:43;;;;;;;;;;;;;;;10.29;47.11;99692.72;4844920;28;120166;-64
2023/01/19 14:24:18;;;;;;;;;;;;;;;10.35;47.29;99705.06;4825178;28;98765;-66
2023/01/19 14:26:50;;;;;;;;;;;;;;;10.41;47.16;99708.50;4827203;28;127147;-66
2023/01/19 14:29:25;;;;;;;;;;;;;;;10.44;47.30;99708.75;4825289;28;98553;-65
2023/01/19 14:32:14;;;;;;;;;;;;;;;10.48;47.01;99704.38;4835139;28;98248;-65
2023/01/19 14:34:46;;;;;;;;;;;;;;;10.51;46.83;99711.91;4847448;28;98320;-66
2023/01/19 14:37:31;;;;;;;;;;;;;;;10.54;47.42;99719.44;4825791;28;99978;-65
2023/01/19 14:40:09;;;;;;;;;;;;;;;10.58;46.89;99711.59;4837407;28;107829;-65
2023/01/19 14:42:37;;;;;;;;;;;;;;;10.60;46.93;99712.09;4838754;28;98172;-65
2023/01/19 14:45:13;;;;;;;;;;;;;;;10.63;47.18;99716.91;4825176;28;98367;-66
2023/01/19 14:47:40;;;;;;;;;;;;;;;10.65;47.00;99719.31;4819570;28;123227;-67
2023/01/19 14:50:16;;;;;;;;;;;;;;;10.66;46.79;99723.63;4823622;28;105104;-66
2023/01/19 14:52:42;;;;;;;;;;;;;;;10.67;47.49;99720.66;4847827;28;98073;-67
2023/01/19 14:55:20;;;;;;;;;;;;;;;10.67;47.19;99719.84;4836363;28;127259;-66
2023/01/19 14:57:46;;;;;;;;;;;;;;;10.69;47.23;99717.66;4836821;28;98285;-66
2023/01/19 15:00:15;;;;;;;;;;;;;;;10.69;47.16;99723.88;4804624;28;125499;-65
2023/01/19 15:02:41;;;;;;;;;;;;;;;10.70;47.12;99728.16;4834353;28;98391;-66
2023/01/19 15:05:08;;;;;;;;;;;;;;;10.70;47.15;99728.16;4836879;28;98186;-66
2023/01/19 15:07:35;;;;;;;;;;;;;;;10.68;46.98;99730.31;4823280;28;98245;-66
2023/01/19 15:10:01;;;;;;;;;;;;;;;10.68;46.96;99734.91;4826036;28;127319;-66
2023/01/19 15:12:27;;;;;;;;;;;;;;;10.67;47.30;99739.50;4830820;28;113048;-67
2023/01/19 15:14:53;;;;;;;;;;;;;;;10.66;47.59;99737.91;4823975;28;128195;-66
2023/01/19 15:17:25;;;;;;;;;;;;;;;10.66;47.43;99737.13;4820677;28;127014;-66
2023/01/19 15:19:52;;;;;;;;;;;;;;;10.63;47.45;99738.47;4837658;28;99943;-67
2023/01/19 15:22:21;;;;;;;;;;;;;;;10.63;47.62;99745.75;4816019;28;98045;-66
2023/01/19 15:24:47;;;;;;;;;;;;;;;10.61;47.30;99745.22;4823396;28;98259;-66
2023/01/19 15:27:13;;;;;;;;;;;;;;;10.60;47.32;99749.03;4835517;28;98581;-67
2023/01/19 15:29:39;;;;;;;;;;;;;;;10.57;47.09;99745.00;4851375;28;98857;-66
2023/01/19 15:32:10;;;;;;;;;;;;;;;10.55;47.06;99745.28;4819274;28;109542;-66
2023/01/19 15:34:36;;;;;;;;;;;;;;;10.54;47.12;99743.69;4836152;28;122627;-66
2023/01/19 15:37:02;;;;;;;;;;;;;;;10.51;47.18;99741.56;4820326;28;128212;-66
2023/01/19 15:39:28;;;;;;;;;;;;;;;10.51;47.13;99748.84;4833565;28;127668;-66
2023/01/19 15:41:53;;;;;;;;;;;;;;;10.48;47.29;99739.41;4807948;28;122670;-66
2023/01/19 15:44:19;;;;;;;;;;;;;;;10.46;47.41;99741.59;4819682;28;126649;-66
2023/01/19 15:46:45;;;;;;;;;;;;;;;10.44;47.66;99754.53;4806206;28;100061;-66
2023/01/19 15:49:11;;;;;;;;;;;;;;;10.42;47.33;99745.97;4845437;28;102990;-65
2023/01/19 15:51:37;;;;;;;;;;;;;;;10.40;47.08;99756.19;4836136;28;122654;-66
2023/01/19 15:54:03;;;;;;;;;;;;;;;10.40;47.63;99752.72;4824784;28;100317;-65
2023/01/19 15:56:29;;;;;;;;;;;;;;;10.37;47.61;99750.56;3972046;28;10000818;-65
2023/01/19 15:58:56;;;;;;;;;;;;;;;10.34;47.35;99756.56;4840269;28;98595;-65
2023/01/19 16:01:29;;;;;;;;;;;;;;;10.33;47.47;99758.41;4830117;28;103372;-65
2023/01/19 16:03:59;;;;;;;;;;;;;;;10.31;47.31;99763.28;4810954;28;99074;-65
2023/01/19 16:06:25;;;;;;;;;;;;;;;10.30;47.51;99759.81;4829435;28;98290;-65
2023/01/19 16:08:53;;;;;;;;;;;;;;;10.29;47.25;99766.25;4841039;28;98345;-65
2023/01/19 16:11:19;;;;;;;;;;;;;;;10.27;47.32;99763.06;4836297;28;99525;-66
2023/01/19 16:13:45;;;;;;;;;;;;;;;10.25;47.04;99773.28;4838606;28;127288;-65
2023/01/19 16:16:16;;;;;;;;;;;;;;;10.25;47.59;99772.50;4826883;28;98298;-66
2023/01/19 16:18:42;;;;;;;;;;;;;;;10.23;47.51;99771.94;4833635;28;98258;-66
2023/01/19 16:21:08;;;;;;;;;;;;;;;10.22;47.68;99767.66;4808053;28;98101;-66
2023/01/19 16:23:34;;;;;;;;;;;;;;;10.19;47.25;99771.72;4809129;28;128003;-65
2023/01/19 16:26:03;;;;;;;;;;;;;;;10.19;47.34;99779.00;4837037;28;106396;-66
2023/01/19 16:28:29;;;;;;;;;;;;;;;10.17;47.15;99771.16;4818660;28;98046;-66
2023/01/19 16:30:55;;;;;;;;;;;;;;;10.16;47.01;99771.47;4822749;28;125676;-66
2023/01/19 16:33:21;;;;;;;;;;;;;;;10.14;46.94;99769.06;4826036;28;128699;-66
2023/01/19 16:35:47;;;;;;;;;;;;;;;10.14;46.90;99773.63;3960682;28;10000783;-65
2023/01/19 16:38:13;;;;;;;;;;;;;;;10.12;47.19;99768.53;4836829;28;98179;-66
2023/01/19 16:40:39;;;;;;;;;;;;;;;10.10;47.24;99776.09;4822426;28;98023;-65
2023/01/19 16:43:05;;;;;;;;;;;;;;;10.09;47.33;99771.78;4834469;28;98299;-66
2023/01/19 16:45:31;;;;;;;;;;;;;;;10.08;47.32;99781.75;4841561;28;98615;-66
2023/01/19 16:47:57;;;;;;;;;;;;;;;10.07;46.96;99788.22;4824996;28;98127;-66
2023/01/19 16:50:23;;;;;;;;;;;;;;;10.06;47.44;99786.63;4838830;28;121100;-66
2023/01/19 16:52:49;;;;;;;;;;;;;;;10.04;46.97;99783.38;4805777;28;128258;-66
2023/01/19 16:55:15;;;;;;;;;;;;;;;10.03;47.14;99789.88;4841570;28;98408;-65
2023/01/19 16:57:41;;;;;;;;;;;;;;;10.04;47.38;99788.78;4827491;28;126206;-66
2023/01/19 17:00:10;;;;;;;;;;;;;;;10.02;46.88;99787.44;4823162;28;123202;-66
2023/01/19 17:02:36;;;;;;;;;;;;;;;10.01;47.32;99783.94;4847342;28;98294;-66
2023/01/19 17:05:02;;;;;;;;;;;;;;;10.00;47.33;99787.72;4828495;28;98394;-66
2023/01/19 17:07:28;;;;;;;;;;;;;;;10.01;47.14;99788.53;4823932;28;98304;-66
2023/01/19 17:09:55;;;;;;;;;;;;;;;10.00;46.72;99790.41;4823897;28;98004;-65
2023/01/19 17:12:20;;;;;;;;;;;;;;;9.98;47.29;99795.28;4821986;28;98486;-66
2023/01/19 17:14:47;;;;;;;;;;;;;;;9.99;47.13;99796.91;4835549;28;105932;-66
2023/01/19 17:17:13;;;;;;;;;;;;;;;9.98;46.92;99795.28;4839246;28;98322;-67
2023/01/19 17:19:39;;;;;;;;;;;;;;;9.98;47.16;99792.59;4837723;28;119511;-66
2023/01/19 17:22:05;;;;;;;;;;;;;;;9.97;46.84;99793.66;4854425;28;99392;-66
2023/01/19 17:24:31;;;;;;;;;;;;;;;9.97;47.44;99790.16;4810813;28;104651;-66
2023/01/19 17:26:57;;;;;;;;;;;;;;;9.96;47.28;99788.56;4842304;28;98872;-66
2023/01/19 17:29:23;;;;;;;;;;;;;;;9.96;46.79;99797.44;4838460;28;98320;-66
2023/01/19 17:31:50;;;;;;;;;;;;;;;9.94;46.98;99794.25;4821172;28;98749;-66
2023/01/19 17:34:16;;;;;;;;;;;;;;;9.94;46.83;99794.25;4820802;28;116632;-67
2023/01/19 17:36:41;;;;;;;;;;;;;;;9.93;47.07;99792.63;4833889;28;121530;-66
2023/01/19 17:39:10;;;;;;;;;;;;;;;9.93;47.50;99799.88;4824747;28;120604;-65
2023/01/19 17:41:36;;;;;;;;;;;;;;;9.92;46.93;99801.78;4829194;28;98521;-66
2023/01/19 17:44:02;;;;;;;;;;;;;;;9.91;46.70;99802.88;4807861;28;99852;-66
2023/01/19 17:46:28;;;;;;;;;;;;;;;9.91;47.33;99810.16;4822716;28;99511;-67
2023/01/19 17:48:57;;;;;;;;;;;;;;;9.90;47.21;99806.63;4816417;28;120598;-67
2023/01/19 17:51:23;;;;;;;;;;;;;;;9.90;46.90;99814.69;4838565;28;110852;-67
2023/01/19 17:53:50;;;;;;;;;;;;;;;9.89;47.13;99813.09;4834225;28;117846;-67
2023/01/19 17:56:16;;;;;;;;;;;;;;;9.89;47.28;99813.09;4822653;28;98397;-67
2023/01/19 17:58:43;;;;;;;;;;;;;;;9.90;47.38;99819.28;4835041;28;98151;-67
2023/01/19 18:01:11;;;;;;;;;;;;;;;9.89;47.63;99815.00;4843927;28;98268;-67
2023/01/19 18:03:37;;;;;;;;;;;;;;;9.89;47.40;99825.75;4836195;28;113193;-67
2023/01/19 18:06:03;;;;;;;;;;;;;;;9.89;47.21;99825.75;4823368;28;127879;-67
2023/01/19 18:08:28;;;;;;;;;;;;;;;9.86;47.04;99829.81;4811198;28;98773;-67
2023/01/19 18:10:55;;;;;;;;;;;;;;;9.88;46.93;99824.16;4804924;28;129781;-66
2023/01/19 18:13:21;;;;;;;;;;;;;;;9.86;47.25;99831.69;4837167;28;116233;-67
2023/01/19 18:15:47;;;;;;;;;;;;;;;9.86;46.94;99829.81;4839381;28;98210;-66
2023/01/19 18:18:13;;;;;;;;;;;;;;;9.85;47.24;99830.88;4850669;28;121498;-67
2023/01/19 18:20:39;;;;;;;;;;;;;;;9.86;47.32;99835.19;4821834;28;125278;-66
2023/01/19 18:23:05;;;;;;;;;;;;;;;9.84;46.83;99824.69;4839741;28;98506;-66
2023/01/19 18:25:31;;;;;;;;;;;;;;;9.84;47.25;99837.38;4840261;28;98430;-66
2023/01/19 18:27:57;;;;;;;;;;;;;;;9.83;47.27;99831.19;4820665;28;121157;-66
2023/01/19 18:30:23;;;;;;;;;;;;;;;9.82;47.17;99828.75;4835996;28;108271;-66
2023/01/19 18:32:50;;;;;;;;;;;;;;;9.81;47.23;99835.22;4817153;28;128517;-67
2023/01/19 18:35:17;;;;;;;;;;;;;;;9.80;46.84;99842.50;4816199;28;98060;-66
2023/01/19 18:37:43;;;;;;;;;;;;;;;9.80;47.72;99852.47;4831670;28;107652;-66
2023/01/19 18:40:09;;;;;;;;;;;;;;;9.78;47.15;99841.16;4819760;28;123394;-67
2023/01/19 18:42:35;;;;;;;;;;;;;;;9.77;46.91;99847.63;4833587;28;114253;-67
2023/01/19 18:45:01;;;;;;;;;;;;;;;9.76;46.98;99841.44;4819945;28;98470;-66
2023/01/19 18:47:27;;;;;;;;;;;;;;;9.77;47.23;99839.53;4821009;28;98213;-66
2023/01/19 18:49:53;;;;;;;;;;;;;;;9.76;47.03;99837.94;4835189;28;127832;-66
2023/01/19 18:52:19;;;;;;;;;;;;;;;9.76;47.63;99849.50;3950502;28;10000633;-66
2023/01/19 18:54:47;;;;;;;;;;;;;;;9.76;46.68;99854.09;4819365;28;98117;-66
2023/01/19 18:57:29;;;;;;;;;;;;;;;9.76;46.89;99846.81;4807347;28;117041;-66
2023/01/19 18:59:54;;;;;;;;;;;;;;;9.76;46.85;99852.19;4824122;28;126480;-67
2023/01/19 19:02:20;;;;;;;;;;;;;;;9.77;46.73;99858.38;4838326;28;98230;-66
2023/01/19 19:04:46;;;;;;;;;;;;;;;9.76;47.34;99852.19;4826692;28;98064;-66
2023/01/19 19:07:12;;;;;;;;;;;;;;;9.78;46.96;99860.00;4831327;28;128884;-68
2023/01/19 19:09:38;;;;;;;;;;;;;;;9.78;47.38;99860.00;4820781;28;127174;-68
2023/01/19 19:12:04;;;;;;;;;;;;;;;9.79;46.81;99865.13;4834688;28;120556;-68
2023/01/19 19:14:32;;;;;;;;;;;;;;;9.80;47.29;99865.91;4848101;28;98248;-68
2023/01/19 19:16:57;;;;;;;;;;;;;;;9.81;47.45;99872.91;4835068;28;99906;-68
2023/01/19 19:19:23;;;;;;;;;;;;;;;9.81;47.18;99868.31;4807137;28;129090;-68
2023/01/19 19:21:50;;;;;;;;;;;;;;;9.83;46.87;99868.88;4839731;28;123020;-68
2023/01/19 19:24:16;;;;;;;;;;;;;;;9.84;47.30;99875.06;4835975;28;98817;-68
2023/01/19 19:26:42;;;;;;;;;;;;;;;9.85;47.36;99876.66;4837621;28;100009;-68
2023/01/19 19:29:08;;;;;;;;;;;;;;;9.86;47.16;99875.56;4820479;28;127170;-68
2023/01/19 19:31:34;;;;;;;;;;;;;;;9.87;46.84;99871.81;4841051;28;123199;-68